createdAt,value
2023-03-03T00:01:03.362Z,77.16
2023-03-03T00:03:31.144Z,77.22
2023-03-03T00:06:00.204Z,77.56
2023-03-03T00:08:28.155Z,76.85
2023-03-03T00:10:55.984Z,77.00
2023-03-03T00:13:26.225Z,76.89
2023-03-03T00:15:58.199Z,77.28
2023-03-03T00:18:31.602Z,76.91
2023-03-03T00:21:01.481Z,76.86
2023-03-03T00:23:36.574Z,76.80
2023-03-03T00:26:16.931Z,77.15
2023-03-03T00:28:47.217Z,77.37
2023-03-03T00:31:19.299Z,77.08
2023-03-03T00:33:50.624Z,77.19
2023-03-03T00:36:31.857Z,77.40
2023-03-03T00:39:18.621Z,77.09
2023-03-03T00:41:46.564Z,77.19
2023-03-03T00:44:36.338Z,77.15
2023-03-03T00:47:24.833Z,77.49
2023-03-03T00:49:52.696Z,76.89
2023-03-03T00:52:21.095Z,76.95
2023-03-03T00:54:49.193Z,76.77
2023-03-03T00:57:16.950Z,76.50
2023-03-03T00:59:44.738Z,76.38
2023-03-03T01:02:13.882Z,76.05
2023-03-03T01:04:43.568Z,76.28
2023-03-03T01:07:11.344Z,75.68
2023-03-03T01:09:39.058Z,75.57
2023-03-03T01:12:07.409Z,75.86
2023-03-03T01:14:35.538Z,76.39
2023-03-03T01:17:03.484Z,76.98
2023-03-03T01:19:32.651Z,77.73
2023-03-03T01:22:00.441Z,78.32
2023-03-03T01:24:28.202Z,79.08
2023-03-03T01:26:55.920Z,79.61
2023-03-03T01:29:23.745Z,78.98
2023-03-03T01:31:51.505Z,79.22
2023-03-03T01:34:19.281Z,79.35
2023-03-03T01:36:48.493Z,79.53
2023-03-03T01:39:16.223Z,79.46
2023-03-03T01:41:44.125Z,79.50
2023-03-03T01:44:15.388Z,79.90
2023-03-03T01:46:52.841Z,80.13
2023-03-03T01:49:24.712Z,80.34
2023-03-03T01:51:58.292Z,80.50
2023-03-03T01:54:31.170Z,80.61
2023-03-03T01:57:02.085Z,80.59
2023-03-03T01:59:33.887Z,80.90
2023-03-03T02:02:01.665Z,80.32
2023-03-03T02:04:29.966Z,80.48
2023-03-03T02:07:04.356Z,80.19
2023-03-03T02:09:38.064Z,80.27
2023-03-03T02:12:12.111Z,79.76
2023-03-03T02:14:39.814Z,80.15
2023-03-03T02:17:07.876Z,79.82
2023-03-03T02:19:44.901Z,79.77
2023-03-03T02:22:17.717Z,79.73
2023-03-03T02:24:52.506Z,79.51
2023-03-03T02:27:21.681Z,79.36
2023-03-03T02:29:49.424Z,79.16
2023-03-03T02:32:17.185Z,78.91
2023-03-03T02:34:50.484Z,78.41
2023-03-03T02:37:19.504Z,78.62
2023-03-03T02:39:48.197Z,79.03
2023-03-03T02:42:21.091Z,79.31
2023-03-03T02:44:50.488Z,79.07
2023-03-03T02:47:18.296Z,79.45
2023-03-03T02:49:46.309Z,79.79
2023-03-03T02:52:14.925Z,80.46
2023-03-03T02:54:42.780Z,81.07
2023-03-03T02:57:10.611Z,81.62
2023-03-03T02:59:38.600Z,81.91
2023-03-03T03:02:08.955Z,82.44
2023-03-03T03:04:36.791Z,82.76
2023-03-03T03:07:04.741Z,83.05
2023-03-03T03:09:32.493Z,83.32
2023-03-03T03:12:02.487Z,83.76
2023-03-03T03:14:30.364Z,84.23
2023-03-03T03:16:58.232Z,84.32
2023-03-03T03:19:27.350Z,84.24
2023-03-03T03:21:55.204Z,84.29
2023-03-03T03:24:22.927Z,84.78
2023-03-03T03:26:50.714Z,85.44
2023-03-03T03:29:18.502Z,86.10
2023-03-03T03:31:46.271Z,85.80
2023-03-03T03:34:14.057Z,86.40
2023-03-03T03:36:43.219Z,86.72
2023-03-03T03:39:11.050Z,87.00
2023-03-03T03:41:38.844Z,86.88
2023-03-03T03:44:06.666Z,87.10
2023-03-03T03:46:34.398Z,87.40
2023-03-03T03:49:02.214Z,87.83
2023-03-03T03:51:30.165Z,88.32
2023-03-03T03:53:59.255Z,88.47
2023-03-03T03:56:26.994Z,88.61
2023-03-03T03:58:54.755Z,89.07
2023-03-03T04:01:22.501Z,89.30
2023-03-03T04:03:50.289Z,89.28
2023-03-03T04:06:18.108Z,89.42
2023-03-03T04:08:45.840Z,89.49
2023-03-03T04:11:14.951Z,89.58
2023-03-03T04:13:42.759Z,89.62
2023-03-03T04:16:10.541Z,89.36
2023-03-03T04:18:38.366Z,89.72
2023-03-03T04:21:06.886Z,89.96
2023-03-03T04:23:34.628Z,89.72
2023-03-03T04:26:02.349Z,89.92
2023-03-03T04:28:31.499Z,90.81
2023-03-03T04:30:59.265Z,90.98
2023-03-03T04:33:27.170Z,91.16
2023-03-03T04:35:55.013Z,91.70
2023-03-03T04:38:22.818Z,91.96
2023-03-03T04:40:50.685Z,92.21
2023-03-03T04:43:18.544Z,92.94
2023-03-03T04:45:47.661Z,93.23
2023-03-03T04:48:15.540Z,93.60
2023-03-03T04:50:43.688Z,93.83
2023-03-03T04:53:11.582Z,93.73
2023-03-03T04:55:39.642Z,93.90
2023-03-03T04:58:07.552Z,94.16
2023-03-03T05:00:35.309Z,94.58
2023-03-03T05:03:04.444Z,95.04
2023-03-03T05:05:32.232Z,95.58
2023-03-03T05:07:59.947Z,96.23
2023-03-03T05:10:27.835Z,96.61
2023-03-03T05:12:55.973Z,97.08
2023-03-03T05:15:24.234Z,97.77
2023-03-03T05:17:53.421Z,97.98
2023-03-03T05:20:24.275Z,98.30
2023-03-03T05:22:52.129Z,98.70
2023-03-03T05:25:19.877Z,99.22
2023-03-03T05:27:47.671Z,99.81
2023-03-03T05:30:15.781Z,100.00
2023-03-03T05:32:43.656Z,100.00
2023-03-03T05:35:11.656Z,100.00
2023-03-03T05:37:44.947Z,100.00
2023-03-03T05:40:14.334Z,100.00
2023-03-03T05:42:42.219Z,100.00
2023-03-03T05:45:11.014Z,100.00
2023-03-03T05:47:39.042Z,100.00
2023-03-03T05:50:07.217Z,100.00
2023-03-03T05:52:34.943Z,100.00
2023-03-03T05:55:04.105Z,100.00
2023-03-03T05:57:32.271Z,100.00
2023-03-03T06:00:00.069Z,100.00
2023-03-03T06:02:27.792Z,100.00
2023-03-03T06:04:55.536Z,100.00
2023-03-03T06:07:23.305Z,100.00
2023-03-03T06:09:51.038Z,100.00
2023-03-03T06:12:20.607Z,100.00
2023-03-03T06:14:48.375Z,100.00
2023-03-03T06:17:16.146Z,100.00
2023-03-03T06:19:43.927Z,100.00
2023-03-03T06:22:11.711Z,100.00
2023-03-03T06:24:39.457Z,100.00
2023-03-03T06:27:07.798Z,100.00
2023-03-03T06:29:36.942Z,100.00
2023-03-03T06:32:04.994Z,100.00
2023-03-03T06:34:32.911Z,100.00
2023-03-03T06:37:00.703Z,100.00
2023-03-03T06:39:28.476Z,100.00
2023-03-03T06:41:56.205Z,100.00
2023-03-03T06:44:24.114Z,100.00
2023-03-03T06:46:53.363Z,100.00
2023-03-03T06:49:21.114Z,100.00
2023-03-03T06:51:49.036Z,100.00
2023-03-03T06:54:19.280Z,100.00
2023-03-03T06:56:48.285Z,100.00
2023-03-03T06:59:17.913Z,100.00
2023-03-03T07:01:49.504Z,100.00
2023-03-03T07:04:30.927Z,100.00
2023-03-03T07:07:00.203Z,100.00
2023-03-03T07:09:30.315Z,100.00
2023-03-03T07:12:02.888Z,100.00
2023-03-03T07:14:31.571Z,100.00
2023-03-03T07:17:02.037Z,100.00
2023-03-03T07:19:35.944Z,100.00
2023-03-03T07:22:13.833Z,100.00
2023-03-03T07:24:43.003Z,100.00
2023-03-03T07:27:14.746Z,99.36
2023-03-03T07:29:43.010Z,97.57
2023-03-03T07:32:25.892Z,97.26
2023-03-03T07:34:56.452Z,96.38
2023-03-03T07:37:31.775Z,95.87
2023-03-03T07:40:00.835Z,94.66
2023-03-03T07:42:34.293Z,94.28
2023-03-03T07:45:04.976Z,92.16
2023-03-03T07:47:37.527Z,91.15
2023-03-03T07:50:17.790Z,89.06
2023-03-03T07:52:56.818Z,87.74
2023-03-03T07:55:33.028Z,86.31
2023-03-03T07:58:22.184Z,85.26
2023-03-03T08:01:29.195Z,85.00
2023-03-03T08:03:57.702Z,83.67
2023-03-03T08:06:37.554Z,82.94
2023-03-03T08:09:26.150Z,81.98
2023-03-03T08:11:58.828Z,79.88
2023-03-03T08:14:31.540Z,78.25
2023-03-03T08:17:01.722Z,77.89
2023-03-03T08:19:32.374Z,76.74
2023-03-03T08:22:10.439Z,75.90
2023-03-03T08:24:38.674Z,77.02
2023-03-03T08:27:07.452Z,77.06
2023-03-03T08:29:35.828Z,74.78
2023-03-03T08:32:04.658Z,73.90
2023-03-03T08:34:32.605Z,74.91
2023-03-03T08:37:01.880Z,74.43
2023-03-03T08:39:29.778Z,74.00
2023-03-03T08:41:57.762Z,74.61
2023-03-03T08:44:25.546Z,74.31
2023-03-03T08:46:53.394Z,74.47
2023-03-03T08:49:22.296Z,75.42
2023-03-03T08:51:50.083Z,75.00
2023-03-03T08:54:19.223Z,74.83
2023-03-03T08:56:46.970Z,74.90
2023-03-03T08:59:14.920Z,75.89
2023-03-03T09:01:44.705Z,74.34
2023-03-03T09:04:12.873Z,74.18
2023-03-03T09:06:40.884Z,74.24
2023-03-03T09:09:08.941Z,76.04
2023-03-03T09:11:38.753Z,75.29
2023-03-03T09:14:12.767Z,74.13
2023-03-03T09:16:42.975Z,73.66
2023-03-03T09:19:21.600Z,71.88
2023-03-03T09:21:49.649Z,72.07
2023-03-03T09:24:26.424Z,70.07
2023-03-03T09:26:55.909Z,69.37
2023-03-03T09:29:29.174Z,68.51
2023-03-03T09:31:59.026Z,67.87
2023-03-03T09:34:39.244Z,66.59
2023-03-03T09:37:19.792Z,66.84
2023-03-03T09:39:50.668Z,65.78
2023-03-03T09:42:42.840Z,65.65
2023-03-03T09:45:26.276Z,64.86
2023-03-03T09:48:25.844Z,64.31
2023-03-03T09:51:04.549Z,64.05
2023-03-03T09:53:50.848Z,63.06
2023-03-03T09:56:26.236Z,64.25
2023-03-03T09:59:08.655Z,64.02
2023-03-03T10:01:49.589Z,64.20
2023-03-03T10:04:32.697Z,64.22
2023-03-03T10:07:16.683Z,63.94
2023-03-03T10:10:04.976Z,63.59
2023-03-03T10:12:38.614Z,65.19
2023-03-03T10:15:28.204Z,64.44
2023-03-03T10:18:16.712Z,61.56
2023-03-03T10:20:51.098Z,61.80
2023-03-03T10:23:25.298Z,61.72
2023-03-03T10:26:12.431Z,63.06
2023-03-03T10:29:06.098Z,60.66
2023-03-03T10:31:56.810Z,60.89
2023-03-03T10:34:49.779Z,62.48
2023-03-03T10:37:25.364Z,61.52
2023-03-03T10:40:10.989Z,59.75
2023-03-03T10:43:29.922Z,60.99
2023-03-03T10:46:19.803Z,59.79
2023-03-03T10:49:03.406Z,59.04
2023-03-03T10:51:39.043Z,59.60
2023-03-03T10:54:24.267Z,59.87
2023-03-03T10:56:59.002Z,58.66
2023-03-03T10:59:41.045Z,57.23
2023-03-03T11:02:17.007Z,56.85
2023-03-03T11:05:00.212Z,56.35
2023-03-03T11:07:36.296Z,54.96
2023-03-03T11:10:23.095Z,55.42
2023-03-03T11:13:03.278Z,55.86
2023-03-03T11:15:41.913Z,54.32
2023-03-03T11:18:25.795Z,53.44
2023-03-03T11:21:03.871Z,54.39
2023-03-03T11:23:54.510Z,52.51
2023-03-03T11:26:34.356Z,54.71
2023-03-03T11:29:18.755Z,53.53
2023-03-03T11:31:50.004Z,51.83
2023-03-03T11:34:35.296Z,52.83
2023-03-03T11:37:09.868Z,54.44
2023-03-03T11:39:38.598Z,53.03
2023-03-03T11:42:17.969Z,55.25
2023-03-03T11:44:48.890Z,52.78
2023-03-03T11:47:22.989Z,53.42
2023-03-03T11:49:57.436Z,54.42
2023-03-03T11:52:34.102Z,53.80
2023-03-03T11:55:08.112Z,52.51
2023-03-03T11:57:42.735Z,52.37
2023-03-03T12:00:29.342Z,53.60
2023-03-03T12:03:15.034Z,53.75
2023-03-03T12:05:54.772Z,52.67
2023-03-03T12:08:51.034Z,53.33
2023-03-03T12:11:26.550Z,53.04
2023-03-03T12:14:00.519Z,53.13
2023-03-03T12:16:40.591Z,52.50
2023-03-03T12:19:23.703Z,52.43
2023-03-03T12:22:07.557Z,51.86
2023-03-03T12:24:48.007Z,52.25
2023-03-03T12:27:22.417Z,51.90
2023-03-03T12:30:05.267Z,53.21
2023-03-03T12:32:49.186Z,51.95
2023-03-03T12:35:25.108Z,52.21
2023-03-03T12:37:57.793Z,51.70
2023-03-03T12:40:34.305Z,52.22
2023-03-03T12:43:18.631Z,52.84
2023-03-03T12:45:57.131Z,50.89
2023-03-03T12:48:37.243Z,52.32
2023-03-03T12:51:14.919Z,51.90
2023-03-03T12:54:05.034Z,51.47
2023-03-03T12:56:38.952Z,51.61
2023-03-03T12:59:14.750Z,51.21
2023-03-03T13:01:55.897Z,51.30
2023-03-03T13:04:35.386Z,50.41
2023-03-03T13:07:11.146Z,50.74
2023-03-03T13:09:55.556Z,52.56
2023-03-03T13:12:32.668Z,51.13
2023-03-03T13:15:10.633Z,50.65
2023-03-03T13:17:43.694Z,50.22
2023-03-03T13:20:23.701Z,51.35
2023-03-03T13:22:56.767Z,50.28
2023-03-03T13:25:44.312Z,50.96
2023-03-03T13:28:22.265Z,50.69
2023-03-03T13:30:54.829Z,51.31
2023-03-03T13:33:27.910Z,50.85
2023-03-03T13:35:59.280Z,51.64
2023-03-03T13:38:30.934Z,50.85
2023-03-03T13:41:07.968Z,51.53
2023-03-03T13:43:45.461Z,50.14
2023-03-03T13:46:19.502Z,51.01
2023-03-03T13:49:24.975Z,51.23
2023-03-03T13:52:01.942Z,51.15
2023-03-03T13:54:45.990Z,50.97
2023-03-03T13:57:28.688Z,50.67
2023-03-03T14:00:14.369Z,51.50
2023-03-03T14:02:58.287Z,50.89
2023-03-03T14:05:31.748Z,50.87
2023-03-03T14:08:09.306Z,51.25
2023-03-03T14:10:42.446Z,52.32
2023-03-03T14:13:13.050Z,52.04
2023-03-03T14:15:49.660Z,51.64
2023-03-03T14:18:25.747Z,51.49
2023-03-03T14:20:56.166Z,51.56
2023-03-03T14:23:28.591Z,51.72
2023-03-03T14:26:00.803Z,50.36
2023-03-03T14:28:30.769Z,50.54
2023-03-03T14:31:16.975Z,51.97
2023-03-03T14:33:47.557Z,51.29
2023-03-03T14:36:18.028Z,51.20
2023-03-03T14:38:51.667Z,50.70
2023-03-03T14:41:36.436Z,51.45
2023-03-03T14:44:25.123Z,52.01
2023-03-03T14:47:22.248Z,52.31
2023-03-03T14:49:50.786Z,52.12
2023-03-03T14:52:26.135Z,53.52
2023-03-03T14:54:55.665Z,53.04
2023-03-03T14:57:41.707Z,52.32
2023-03-03T15:00:31.094Z,53.84
2023-03-03T15:03:06.636Z,53.55
2023-03-03T15:05:35.147Z,54.38
2023-03-03T15:08:11.903Z,54.06
2023-03-03T15:10:41.424Z,53.27
2023-03-03T15:13:34.884Z,54.32
2023-03-03T15:16:12.396Z,54.08
2023-03-03T15:19:20.110Z,55.34
2023-03-03T15:22:00.415Z,54.33
2023-03-03T15:24:38.842Z,55.01
2023-03-03T15:27:13.351Z,55.53
2023-03-03T15:29:49.910Z,55.72
2023-03-03T15:32:30.824Z,56.31
2023-03-03T15:35:15.423Z,55.54
2023-03-03T15:37:48.724Z,55.19
2023-03-03T15:40:26.751Z,55.37
2023-03-03T15:43:03.032Z,56.10
2023-03-03T15:45:35.397Z,56.44
2023-03-03T15:48:25.277Z,56.11
2023-03-03T15:51:00.394Z,56.97
2023-03-03T15:53:43.694Z,56.35
2023-03-03T15:56:21.582Z,56.72
2023-03-03T15:59:05.232Z,56.90
2023-03-03T16:01:35.508Z,57.11
2023-03-03T16:04:10.627Z,56.58
2023-03-03T16:06:48.357Z,57.07
2023-03-03T16:09:33.174Z,56.93
2023-03-03T16:12:12.780Z,56.86
2023-03-03T16:14:55.208Z,57.07
2023-03-03T16:17:33.432Z,57.61
2023-03-03T16:20:10.922Z,57.51
2023-03-03T16:23:08.372Z,57.67
2023-03-03T16:25:53.234Z,57.75
2023-03-03T16:28:27.025Z,58.00
2023-03-03T16:31:01.900Z,57.95
2023-03-03T16:33:37.415Z,58.01
2023-03-03T16:36:10.785Z,58.14
2023-03-03T16:38:42.745Z,58.41
2023-03-03T16:41:15.448Z,59.01
2023-03-03T16:43:51.519Z,59.14
2023-03-03T16:46:31.897Z,59.25
2023-03-03T16:49:07.437Z,59.27
2023-03-03T16:51:43.188Z,59.60
2023-03-03T16:54:19.578Z,59.76
2023-03-03T16:56:53.434Z,59.98
2023-03-03T16:59:55.655Z,60.06
2023-03-03T17:02:58.825Z,60.28
2023-03-03T17:05:35.148Z,60.31
2023-03-03T17:08:18.643Z,60.22
2023-03-03T17:10:52.375Z,60.50
2023-03-03T17:13:55.991Z,60.07
2023-03-03T17:16:39.873Z,60.19
2023-03-03T17:19:30.021Z,60.48
2023-03-03T17:22:08.692Z,60.39
2023-03-03T17:24:48.550Z,61.13
2023-03-03T17:27:27.711Z,61.03
2023-03-03T17:30:07.659Z,61.50
2023-03-03T17:32:58.333Z,61.68
2023-03-03T17:35:45.340Z,61.76
2023-03-03T17:38:26.135Z,61.74
2023-03-03T17:41:04.116Z,61.81
2023-03-03T17:43:43.551Z,61.52
2023-03-03T17:46:18.507Z,62.16
2023-03-03T17:49:24.980Z,62.24
2023-03-03T17:52:21.217Z,63.04
2023-03-03T17:55:18.376Z,63.44
2023-03-03T17:58:00.103Z,63.59
2023-03-03T18:00:49.202Z,64.45
2023-03-03T18:03:53.665Z,65.25
2023-03-03T18:06:40.540Z,66.11
2023-03-03T18:09:22.168Z,66.88
2023-03-03T18:12:13.358Z,67.89
2023-03-03T18:14:58.034Z,68.73
2023-03-03T18:17:45.634Z,70.09
2023-03-03T18:20:35.501Z,71.50
2023-03-03T18:23:31.635Z,72.67
2023-03-03T18:26:00.601Z,73.46
2023-03-03T18:28:46.235Z,74.10
2023-03-03T18:31:24.857Z,75.44
2023-03-03T18:34:03.764Z,75.73
2023-03-03T18:36:40.723Z,76.23
2023-03-03T18:39:15.138Z,76.50
2023-03-03T18:42:06.725Z,77.25
2023-03-03T18:44:34.591Z,78.19
2023-03-03T18:47:02.468Z,78.73
2023-03-03T18:49:52.572Z,79.47
2023-03-03T18:52:27.385Z,80.66
2023-03-03T18:55:05.996Z,80.97
2023-03-03T18:57:33.824Z,81.64
2023-03-03T19:00:15.282Z,82.17
2023-03-03T19:02:53.470Z,82.63
2023-03-03T19:05:25.739Z,83.17
2023-03-03T19:07:59.305Z,83.74
2023-03-03T19:10:52.091Z,84.31
2023-03-03T19:13:41.095Z,84.92
2023-03-03T19:16:09.206Z,85.54
2023-03-03T19:18:57.608Z,86.48
2023-03-03T19:21:31.252Z,86.50
2023-03-03T19:24:01.024Z,86.91
2023-03-03T19:26:42.033Z,86.76
2023-03-03T19:29:23.819Z,87.39
2023-03-03T19:31:59.239Z,87.82
2023-03-03T19:34:34.858Z,87.95
2023-03-03T19:37:17.202Z,88.39
2023-03-03T19:39:54.646Z,88.68
2023-03-03T19:42:39.923Z,88.85
2023-03-03T19:45:20.535Z,89.15
2023-03-03T19:47:52.469Z,89.87
2023-03-03T19:50:32.284Z,90.93
2023-03-03T19:53:11.745Z,91.26
2023-03-03T19:55:49.535Z,91.97
2023-03-03T19:58:32.761Z,92.16
2023-03-03T20:01:08.587Z,92.82
2023-03-03T20:03:52.714Z,93.05
2023-03-03T20:06:35.866Z,92.91
2023-03-03T20:09:15.288Z,93.44
2023-03-03T20:12:04.130Z,94.16
2023-03-03T20:14:45.946Z,94.58
2023-03-03T20:17:30.594Z,94.92
2023-03-03T20:20:07.969Z,95.61
2023-03-03T20:22:47.171Z,96.21
2023-03-03T20:25:29.220Z,97.35
2023-03-03T20:28:06.891Z,98.00
2023-03-03T20:30:51.659Z,99.26
2023-03-03T20:33:44.067Z,100.00
2023-03-03T20:36:19.212Z,99.88
2023-03-03T20:38:55.510Z,99.50
2023-03-03T20:41:33.455Z,99.66
2023-03-03T20:44:10.518Z,99.33
2023-03-03T20:46:48.090Z,99.22
2023-03-03T20:49:34.116Z,98.90
2023-03-03T20:52:08.339Z,98.01
2023-03-03T20:54:46.826Z,97.60
2023-03-03T20:57:23.885Z,97.26
2023-03-03T21:00:00.250Z,97.62
2023-03-03T21:02:38.717Z,97.87
2023-03-03T21:05:13.817Z,97.74
2023-03-03T21:07:54.060Z,98.08
2023-03-03T21:10:24.733Z,98.93
2023-03-03T21:12:55.907Z,99.87
2023-03-03T21:15:27.349Z,100.00
2023-03-03T21:17:55.990Z,100.00
2023-03-03T21:20:30.606Z,100.00
2023-03-03T21:22:59.765Z,100.00
2023-03-03T21:25:47.815Z,100.00
2023-03-03T21:28:20.195Z,100.00
2023-03-03T21:31:21.684Z,100.00
2023-03-03T21:33:52.363Z,100.00
2023-03-03T21:36:23.207Z,100.00
2023-03-03T21:38:52.049Z,100.00
2023-03-03T21:41:20.453Z,100.00
2023-03-03T21:43:51.950Z,100.00
2023-03-03T21:46:20.491Z,100.00
2023-03-03T21:48:48.501Z,100.00
2023-03-03T21:51:16.832Z,100.00
2023-03-03T21:53:45.801Z,100.00
2023-03-03T21:56:14.053Z,100.00
2023-03-03T21:58:42.045Z,100.00
2023-03-03T22:01:11.393Z,100.00
2023-03-03T22:03:39.133Z,100.00
2023-03-03T22:06:07.789Z,100.00
2023-03-03T22:08:35.582Z,100.00
2023-03-03T22:11:03.410Z,100.00
2023-03-03T22:13:31.143Z,100.00
2023-03-03T22:15:59.058Z,100.00
2023-03-03T22:18:28.202Z,100.00
2023-03-03T22:20:55.939Z,100.00
2023-03-03T22:23:23.769Z,100.00
2023-03-03T22:25:51.484Z,100.00
2023-03-03T22:28:19.223Z,100.00
2023-03-03T22:30:47.051Z,100.00
2023-03-03T22:33:14.808Z,100.00
2023-03-03T22:35:43.925Z,100.00
2023-03-03T22:38:11.766Z,100.00
2023-03-03T22:40:39.514Z,100.00
2023-03-03T22:43:07.393Z,100.00
2023-03-03T22:45:35.285Z,100.00
2023-03-03T22:48:03.132Z,100.00
2023-03-03T22:50:30.947Z,100.00
2023-03-03T22:53:00.132Z,100.00
2023-03-03T22:55:29.349Z,100.00
2023-03-03T22:57:57.097Z,100.00
2023-03-03T23:00:24.915Z,100.00
2023-03-03T23:02:52.717Z,100.00
2023-03-03T23:05:20.552Z,100.00
2023-03-03T23:07:48.416Z,100.00
2023-03-03T23:10:17.574Z,100.00
2023-03-03T23:12:45.414Z,100.00
2023-03-03T23:15:14.190Z,100.00
2023-03-03T23:17:43.437Z,100.00
2023-03-03T23:20:13.653Z,100.00
2023-03-03T23:22:41.898Z,100.00
2023-03-03T23:25:11.698Z,100.00
2023-03-03T23:27:40.963Z,100.00
2023-03-03T23:30:10.733Z,100.00
2023-03-03T23:32:38.453Z,100.00
2023-03-03T23:35:07.287Z,100.00
2023-03-03T23:37:35.196Z,100.00
2023-03-03T23:40:03.072Z,100.00
2023-03-03T23:42:30.940Z,100.00
2023-03-03T23:45:00.067Z,100.00
2023-03-03T23:47:27.897Z,100.00
2023-03-03T23:49:55.652Z,100.00
2023-03-03T23:52:23.485Z,100.00
2023-03-03T23:54:51.473Z,100.00
2023-03-03T23:57:19.220Z,100.00
2023-03-03T23:59:47.034Z,100.00
